Time;durP1;ratioP1;P1;durP2;ratioP2;P2;SDS_P1;SDS_P2;PMS_P1;PMS_P2;Temp;Humidity;BMP_temperature;BMP_pressure;BME280_temperature;BME280_humidity;BME280_pressure;Samples;Min_cycle;Max_cycle;Signal;HPM_P1;HPM_P2
2021/08/18 00:00:27;;;;;;;17.33;10.00;;;;;;;14.85;100.00;98376.38;5073222;28;20214;-62
2021/08/18 00:02:54;;;;;;;17.63;10.13;;;;;;;14.88;100.00;98377.94;5072995;28;20668;-62
2021/08/18 00:05:20;;;;;;;18.40;10.10;;;;;;;14.88;100.00;98369.94;5073074;28;20208;-62
2021/08/18 00:07:47;;;;;;;18.97;10.63;;;;;;;14.90;100.00;98370.69;5071615;28;20207;-62
2021/08/18 00:10:14;;;;;;;15.83;9.53;;;;;;;14.92;100.00;98374.06;5073192;28;20211;-62
2021/08/18 00:12:42;;;;;;;16.93;10.27;;;;;;;14.89;100.00;98368.97;5072764;28;20235;-62
2021/08/18 00:15:13;;;;;;;16.53;10.17;;;;;;;14.91;100.00;98365.22;5073272;28;20224;-62
2021/08/18 00:17:39;;;;;;;14.77;9.87;;;;;;;14.92;100.00;98376.72;5073016;28;20653;-63
2021/08/18 00:20:06;;;;;;;15.43;9.77;;;;;;;14.94;100.00;98372.09;5072881;28;20683;-62
2021/08/18 00:22:33;;;;;;;16.50;9.63;;;;;;;14.95;100.00;98376.44;5073196;28;20240;-62
2021/08/18 00:24:59;;;;;;;15.60;9.60;;;;;;;14.95;100.00;98373.78;5073003;28;20218;-62
2021/08/18 00:27:26;;;;;;;16.00;9.53;;;;;;;14.97;100.00;98377.19;5072657;28;20200;-62
2021/08/18 00:29:54;;;;;;;17.30;9.73;;;;;;;14.95;100.00;98371.13;5072862;28;20225;-62
2021/08/18 00:32:20;;;;;;;14.17;9.57;;;;;;;14.93;100.00;98376.59;5071312;28;20231;-62
2021/08/18 00:34:47;;;;;;;15.00;9.50;;;;;;;14.94;100.00;98377.44;5072746;28;20263;-62
2021/08/18 00:37:13;;;;;;;15.77;9.77;;;;;;;14.97;100.00;98377.19;5072880;28;20317;-62
2021/08/18 00:39:40;;;;;;;16.23;10.13;;;;;;;14.97;100.00;98378.00;5072606;28;20211;-62
2021/08/18 00:42:07;;;;;;;14.90;9.20;;;;;;;14.99;100.00;98369.91;5072828;28;20212;-62
2021/08/18 00:44:35;;;;;;;16.50;9.40;;;;;;;14.98;100.00;98378.88;5072839;28;20207;-62
2021/08/18 00:47:05;;;;;;;14.97;9.73;;;;;;;15.00;100.00;98366.28;5072855;28;20218;-62
2021/08/18 00:49:32;;;;;;;16.00;9.93;;;;;;;15.01;100.00;98363.50;5072529;28;20213;-62
2021/08/18 00:52:00;;;;;;;14.97;9.73;;;;;;;15.05;100.00;98372.91;5072799;28;20231;-63
2021/08/18 00:54:26;;;;;;;15.17;8.83;;;;;;;15.02;100.00;98361.69;5072711;28;20214;-62
2021/08/18 00:56:54;;;;;;;13.67;9.77;;;;;;;15.04;100.00;98363.22;5072535;28;20581;-62
2021/08/18 00:59:22;;;;;;;17.13;10.00;;;;;;;15.06;100.00;98355.97;5070052;28;20589;-63
2021/08/18 01:01:49;;;;;;;16.40;9.80;;;;;;;15.06;100.00;98360.44;5058938;28;20702;-62
2021/08/18 01:04:17;;;;;;;14.00;8.77;;;;;;;15.06;100.00;98360.44;5068858;28;20573;-62
2021/08/18 01:06:44;;;;;;;14.33;9.70;;;;;;;15.00;100.00;98355.63;5057421;28;20220;-63
2021/08/18 01:09:13;;;;;;;13.90;9.03;;;;;;;15.04;100.00;98355.22;5063516;28;20224;-63
2021/08/18 01:11:42;;;;;;;14.30;9.40;;;;;;;15.03;100.00;98344.72;5065658;28;20218;-62
2021/08/18 01:14:09;;;;;;;15.87;9.47;;;;;;;15.06;100.00;98349.78;5072610;28;20214;-62
2021/08/18 01:16:38;;;;;;;14.80;9.40;;;;;;;15.07;100.00;98351.47;5072561;28;20213;-62
2021/08/18 01:19:06;;;;;;;15.40;9.47;;;;;;;15.08;100.00;98353.16;5072461;28;20217;-62
2021/08/18 01:21:35;;;;;;;15.27;9.67;;;;;;;15.07;100.00;98357.66;5072938;28;20203;-62
2021/08/18 01:24:01;;;;;;;13.87;9.13;;;;;;;15.10;100.00;98351.22;5075355;28;20210;-62
2021/08/18 01:26:29;;;;;;;14.20;9.30;;;;;;;15.12;100.00;98349.28;5075331;28;20214;-62
2021/08/18 01:28:58;;;;;;;13.30;9.10;;;;;;;15.08;100.00;98354.00;5075734;28;20695;-62
2021/08/18 01:31:24;;;;;;;13.20;8.57;;;;;;;15.11;100.00;98352.91;5076046;28;20207;-63
2021/08/18 01:33:51;;;;;;;14.43;9.60;;;;;;;15.13;100.00;98356.28;5075665;28;20227;-63
2021/08/18 01:36:19;;;;;;;15.13;9.57;;;;;;;15.14;100.00;98355.31;5075916;28;20212;-63
2021/08/18 01:38:47;;;;;;;13.43;8.70;;;;;;;15.13;100.00;98345.63;5075834;28;20230;-62
2021/08/18 01:41:14;;;;;;;16.17;9.70;;;;;;;15.14;100.00;98349.97;5075776;28;20641;-62
2021/08/18 01:43:40;;;;;;;14.67;8.90;;;;;;;15.17;100.00;98357.72;5075543;28;20203;-63
2021/08/18 01:46:10;;;;;;;15.23;9.27;;;;;;;15.17;100.00;98352.41;5075772;28;20210;-63
2021/08/18 01:48:37;;;;;;;15.53;9.33;;;;;;;15.18;100.00;98354.94;5075578;28;20245;-63
2021/08/18 01:51:06;;;;;;;13.93;9.10;;;;;;;15.16;100.00;98340.06;5074230;28;20215;-62
2021/08/18 01:53:34;;;;;;;14.80;9.70;;;;;;;15.15;100.00;98344.53;5075246;28;20242;-63
2021/08/18 01:56:02;;;;;;;14.57;9.60;;;;;;;15.17;100.00;98347.94;5075262;28;20211;-62
2021/08/18 01:58:30;;;;;;;14.70;9.63;;;;;;;15.19;100.00;98345.97;5075483;28;20216;-63
2021/08/18 02:00:57;;;;;;;15.73;9.47;;;;;;;15.21;100.00;98348.50;5075101;28;20675;-62
2021/08/18 02:03:24;;;;;;;14.47;9.30;;;;;;;15.22;100.00;98344.88;5075079;28;20211;-63
2021/08/18 02:05:51;;;;;;;14.53;9.83;;;;;;;15.23;100.00;98346.56;5075148;28;20771;-62
2021/08/18 02:08:18;;;;;;;13.10;9.23;;;;;;;15.20;100.00;98349.47;5075061;28;20228;-62
2021/08/18 02:10:44;;;;;;;13.83;9.13;;;;;;;15.20;100.00;98342.34;5075026;28;20216;-63
2021/08/18 02:13:11;;;;;;;15.23;9.17;;;;;;;15.21;100.00;98348.50;5074927;28;20231;-63
2021/08/18 02:15:39;;;;;;;13.77;9.33;;;;;;;15.20;100.00;98341.47;5074955;28;20218;-62
2021/08/18 02:18:07;;;;;;;13.33;8.97;;;;;;;15.20;100.00;98341.47;5073028;28;20222;-63
2021/08/18 02:20:37;;;;;;;15.10;8.97;;;;;;;15.18;100.00;98343.44;5075115;28;20212;-63
2021/08/18 02:23:04;;;;;;;14.67;8.93;;;;;;;15.19;100.00;98345.97;5075196;28;20237;-63
2021/08/18 02:25:31;;;;;;;14.33;8.97;;;;;;;15.23;100.00;98339.44;5075106;28;20557;-62
2021/08/18 02:27:58;;;;;;;12.67;8.30;;;;;;;15.19;100.00;98334.47;5074991;28;20573;-62
2021/08/18 02:30:26;;;;;;;12.70;8.33;;;;;;;15.19;100.00;98338.00;5074865;28;20214;-62
2021/08/18 02:32:54;;;;;;;11.93;7.77;;;;;;;15.19;100.00;98334.47;5073788;28;20708;-62
2021/08/18 02:35:22;;;;;;;11.07;7.23;;;;;;;15.16;100.00;98345.38;5074496;28;20703;-62
2021/08/18 02:37:51;;;;;;;12.10;7.63;;;;;;;15.18;100.00;98344.28;5074772;28;20219;-63
2021/08/18 02:40:20;;;;;;;11.63;7.40;;;;;;;15.17;100.00;98345.28;5074735;28;20219;-63
2021/08/18 02:42:47;;;;;;;12.37;7.67;;;;;;;15.22;100.00;98342.22;5073074;28;20245;-63
2021/08/18 02:45:14;;;;;;;10.50;7.03;;;;;;;15.25;100.00;98349.94;5074782;28;20213;-63
2021/08/18 02:47:40;;;;;;;12.30;7.17;;;;;;;15.23;100.00;98347.41;5074667;28;20221;-63
2021/08/18 02:50:09;;;;;;;10.63;7.40;;;;;;;15.24;100.00;98346.44;5074510;28;20214;-63
2021/08/18 02:52:35;;;;;;;12.70;6.90;;;;;;;15.22;100.00;98344.88;5074219;28;20240;-63
2021/08/18 02:55:04;;;;;;;8.77;6.33;;;;;;;15.20;100.00;98344.13;5074048;28;20210;-62
2021/08/18 02:57:31;;;;;;;10.60;7.07;;;;;;;15.20;100.00;98344.13;5074334;28;20240;-63
2021/08/18 02:59:57;;;;;;;9.90;6.20;;;;;;;15.20;100.00;98344.13;5074202;28;20221;-63
2021/08/18 03:02:24;;;;;;;8.07;5.93;;;;;;;15.19;100.00;98348.63;5074079;28;20214;-62
2021/08/18 03:04:51;;;;;;;9.50;6.13;;;;;;;15.24;100.00;98345.56;5074143;28;20213;-63
2021/08/18 03:07:18;;;;;;;9.37;5.93;;;;;;;15.26;100.00;98341.81;5073921;28;20676;-63
2021/08/18 03:09:45;;;;;;;9.57;5.97;;;;;;;15.27;100.00;98345.34;5072472;28;20210;-63
2021/08/18 03:12:13;;;;;;;8.40;5.57;;;;;;;15.27;100.00;98340.00;5073997;28;20663;-62
2021/08/18 03:14:39;;;;;;;8.77;5.73;;;;;;;15.25;100.00;98339.28;5074071;28;20211;-63
2021/08/18 03:17:06;;;;;;;9.07;5.57;;;;;;;15.27;100.00;98340.00;5073667;28;20210;-62
2021/08/18 03:19:33;;;;;;;7.70;5.20;;;;;;;15.26;100.00;98343.63;5073678;28;20219;-63
2021/08/18 03:21:59;;;;;;;7.43;5.30;;;;;;;15.23;100.00;98346.56;5073966;28;20209;-63
2021/08/18 03:24:26;;;;;;;8.40;5.30;;;;;;;15.25;100.00;98344.59;5073783;28;20306;-63
2021/08/18 03:26:52;;;;;;;7.70;5.30;;;;;;;15.24;100.00;98348.25;5073763;28;20230;-63
2021/08/18 03:29:20;;;;;;;6.77;5.27;;;;;;;15.25;100.00;98344.59;5073710;28;20646;-63
2021/08/18 03:31:47;;;;;;;7.53;5.20;;;;;;;15.25;100.00;98350.78;5073704;28;20218;-62
2021/08/18 03:34:13;;;;;;;9.27;5.57;;;;;;;15.26;100.00;98344.47;5071579;28;20251;-62
2021/08/18 03:36:40;;;;;;;7.93;5.63;;;;;;;15.29;100.00;98346.03;5073349;28;20221;-62
2021/08/18 03:39:06;;;;;;;7.93;5.60;;;;;;;15.30;100.00;98353.06;5073326;28;20211;-62
2021/08/18 03:41:33;;;;;;;9.07;6.17;;;;;;;15.33;100.00;98342.19;5073503;28;20208;-63
2021/08/18 03:43:59;;;;;;;8.70;5.70;;;;;;;15.30;100.00;98347.72;5073304;28;20208;-62
2021/08/18 03:46:28;;;;;;;8.23;5.77;;;;;;;15.30;100.00;98342.41;5073399;28;20214;-62
2021/08/18 03:48:54;;;;;;;6.63;5.00;;;;;;;15.30;100.00;98339.72;5073450;28;20217;-62
2021/08/18 03:51:21;;;;;;;7.87;5.30;;;;;;;15.34;100.00;98346.53;5073082;28;20214;-62
2021/08/18 03:53:47;;;;;;;7.30;4.67;;;;;;;15.27;100.00;98340.00;5073237;28;20234;-62
2021/08/18 03:56:14;;;;;;;5.87;4.23;;;;;;;15.28;100.00;98349.69;5073083;28;20298;-63
2021/08/18 03:58:40;;;;;;;6.30;4.53;;;;;;;15.26;100.00;98355.13;5073153;28;20232;-62
2021/08/18 04:01:07;;;;;;;5.50;4.30;;;;;;;15.25;100.00;98341.94;5071373;28;20775;-62
2021/08/18 04:03:36;;;;;;;6.03;4.00;;;;;;;15.26;100.00;98352.47;5073269;28;20218;-62
2021/08/18 04:06:03;;;;;;;7.40;4.30;;;;;;;15.25;100.00;98345.47;5073295;28;20298;-62
2021/08/18 04:08:29;;;;;;;6.57;4.30;;;;;;;15.26;100.00;98344.47;5072942;28;20221;-62
2021/08/18 04:10:56;;;;;;;5.80;4.20;;;;;;;15.18;100.00;98354.94;5073018;28;20210;-62
2021/08/18 04:13:23;;;;;;;5.53;4.30;;;;;;;15.17;100.00;98353.25;5072797;28;20229;-62
2021/08/18 04:15:49;;;;;;;8.47;5.13;;;;;;;15.12;100.00;98350.13;5073222;28;20210;-62
2021/08/18 04:18:16;;;;;;;6.70;3.83;;;;;;;15.13;100.00;98351.81;5073039;28;20214;-62
2021/08/18 04:20:44;;;;;;;6.90;4.37;;;;;;;15.15;100.00;98360.50;5072924;28;20306;-62
2021/08/18 04:23:11;;;;;;;6.60;4.57;;;;;;;15.16;100.00;98366.69;5072807;28;20695;-62
2021/08/18 04:25:38;;;;;;;6.17;4.37;;;;;;;15.17;100.00;98355.91;5073089;28;20206;-62
2021/08/18 04:28:05;;;;;;;6.37;4.47;;;;;;;15.21;100.00;98353.84;5070925;28;20625;-62
2021/08/18 04:30:32;;;;;;;7.53;4.93;;;;;;;15.16;100.00;98361.38;5072980;28;20214;-62
2021/08/18 04:32:58;;;;;;;6.93;4.80;;;;;;;15.13;100.00;98357.13;5073031;28;20577;-62
2021/08/18 04:35:25;;;;;;;6.27;4.50;;;;;;;15.11;100.00;98363.56;5073114;28;20251;-62
2021/08/18 04:37:53;;;;;;;5.70;4.07;;;;;;;15.07;100.00;98367.44;5072705;28;20214;-62
2021/08/18 04:40:21;;;;;;;6.47;4.10;;;;;;;15.07;100.00;98367.44;5072651;28;20216;-62
2021/08/18 04:42:49;;;;;;;6.40;4.20;;;;;;;15.08;100.00;98366.47;5072949;28;20219;-62
2021/08/18 04:45:17;;;;;;;5.07;3.77;;;;;;;15.04;100.00;98363.22;5072808;28;20217;-62
2021/08/18 04:47:43;;;;;;;5.87;3.73;;;;;;;14.98;100.00;98368.22;5072876;28;20276;-62
2021/08/18 04:50:12;;;;;;;6.27;3.83;;;;;;;14.94;100.00;98367.63;5072404;28;20213;-62
2021/08/18 04:52:39;;;;;;;7.60;4.43;;;;;;;14.96;100.00;98367.50;5071072;28;20218;-62
2021/08/18 04:55:08;;;;;;;5.57;3.90;;;;;;;15.01;100.00;98371.47;5072728;28;20221;-62
2021/08/18 04:57:35;;;;;;;5.50;3.90;;;;;;;15.10;100.00;98369.88;5075175;28;20221;-62
2021/08/18 05:00:01;;;;;;;6.63;4.23;;;;;;;15.16;100.00;98369.34;5076708;28;20215;-62
2021/08/18 05:02:28;;;;;;;6.50;4.60;;;;;;;15.20;100.00;98371.63;5076479;28;20214;-62
2021/08/18 05:04:54;;;;;;;7.10;4.40;;;;;;;15.16;100.00;98372.00;5076583;28;20219;-62
2021/08/18 05:07:21;;;;;;;6.33;4.30;;;;;;;15.13;100.00;98372.25;5076469;28;20217;-62
2021/08/18 05:09:47;;;;;;;5.93;4.17;;;;;;;15.10;100.00;98372.53;5076359;28;20213;-62
2021/08/18 05:12:15;;;;;;;6.13;4.30;;;;;;;15.06;100.00;98376.41;5076416;28;20214;-62
2021/08/18 05:14:42;;;;;;;6.93;4.70;;;;;;;15.08;100.00;98371.78;5076079;28;20231;-62
2021/08/18 05:17:08;;;;;;;5.73;3.73;;;;;;;15.10;100.00;98372.53;5076368;28;20214;-62
2021/08/18 05:19:35;;;;;;;6.27;3.93;;;;;;;15.11;100.00;98379.53;5074608;28;20218;-62
2021/08/18 05:22:01;;;;;;;5.17;3.60;;;;;;;15.10;100.00;98377.84;5076294;28;20224;-62
2021/08/18 05:24:28;;;;;;;5.53;3.50;;;;;;;15.07;100.00;98386.06;5075836;28;20226;-62
2021/08/18 05:26:54;;;;;;;6.80;4.33;;;;;;;15.08;100.00;98380.63;5076042;28;20289;-62
2021/08/18 05:29:22;;;;;;;4.87;3.50;;;;;;;15.06;100.00;98381.72;5076249;28;20288;-62
2021/08/18 05:31:48;;;;;;;5.30;3.90;;;;;;;15.11;100.00;98384.84;5076243;28;20213;-62
2021/08/18 05:34:15;;;;;;;5.67;4.30;;;;;;;15.11;100.00;98383.06;5075930;28;20250;-62
2021/08/18 05:36:41;;;;;;;5.10;4.00;;;;;;;15.08;100.00;98383.28;5075996;28;20215;-62
2021/08/18 05:39:08;;;;;;;6.77;4.10;;;;;;;15.05;100.00;98391.56;5075507;28;20203;-62
2021/08/18 05:41:34;;;;;;;5.63;3.70;;;;;;;15.00;100.00;98383.09;5075831;28;20218;-62
2021/08/18 05:44:01;;;;;;;5.07;3.60;;;;;;;14.98;100.00;98384.19;5074750;28;20218;-62
2021/08/18 05:46:29;;;;;;;7.07;4.23;;;;;;;14.97;100.00;98377.19;5074573;28;20217;-62
2021/08/18 05:48:55;;;;;;;6.13;3.97;;;;;;;15.00;100.00;98376.91;5075697;28;20207;-63
2021/08/18 05:51:22;;;;;;;4.63;3.20;;;;;;;15.01;100.00;98375.94;5075372;28;20215;-62
2021/08/18 05:53:50;;;;;;;6.87;4.40;;;;;;;14.99;100.00;98376.09;5075270;28;20232;-62
2021/08/18 05:56:17;;;;;;;7.23;4.70;;;;;;;15.01;100.00;98378.59;5075491;28;20218;-63
2021/08/18 05:58:43;;;;;;;7.80;5.07;;;;;;;15.00;100.00;98379.56;5075489;28;20208;-62
2021/08/18 06:01:10;;;;;;;7.20;4.60;;;;;;;15.02;100.00;98375.00;5075186;28;20684;-63
2021/08/18 06:03:38;;;;;;;6.57;4.20;;;;;;;15.03;100.00;98371.34;5075120;28;20214;-62
2021/08/18 06:06:05;;;;;;;6.63;4.17;;;;;;;15.06;100.00;98382.59;5075441;28;20219;-63
2021/08/18 06:08:31;;;;;;;7.97;4.77;;;;;;;15.07;100.00;98376.28;5075147;28;20580;-62
2021/08/18 06:10:58;;;;;;;8.00;4.50;;;;;;;15.12;100.00;98383.88;5072650;28;20656;-63
2021/08/18 06:13:24;;;;;;;6.33;5.10;;;;;;;15.17;100.00;98379.03;5074343;28;20246;-63
2021/08/18 06:15:52;;;;;;;6.90;4.57;;;;;;;15.28;100.00;98384.31;5074349;28;20222;-63
2021/08/18 06:18:18;;;;;;;6.27;4.43;;;;;;;15.37;100.00;98386.22;5074695;28;20221;-63
2021/08/18 06:20:46;;;;;;;6.57;4.20;;;;;;;15.43;100.00;98391.00;5072802;28;20211;-62
2021/08/18 06:23:16;;;;;;;6.03;4.37;;;;;;;15.46;100.00;98377.44;5071920;28;20211;-62
2021/08/18 06:25:43;;;;;;;6.20;4.20;;;;;;;15.53;100.00;98373.28;5073709;28;20227;-62
2021/08/18 06:28:09;;;;;;;4.77;3.63;;;;;;;15.57;100.00;98377.41;5073725;28;20213;-63
2021/08/18 06:30:36;;;;;;;4.83;3.67;;;;;;;15.65;100.00;98382.91;5074362;28;20207;-63
2021/08/18 06:33:02;;;;;;;4.80;3.10;;;;;;;15.77;100.00;98384.50;5074269;28;20203;-63
2021/08/18 06:35:28;;;;;;;3.30;2.57;;;;;;;15.90;100.00;98388.66;5074160;28;20250;-63
2021/08/18 06:37:56;;;;;;;3.33;2.40;;;;;;;16.02;100.00;98386.75;5072497;28;20218;-63
2021/08/18 06:40:23;;;;;;;3.67;2.53;;;;;;;16.15;100.00;98386.38;5074056;28;20218;-63
2021/08/18 06:42:49;;;;;;;2.90;2.10;;;;;;;16.26;100.00;98383.63;5073973;28;20514;-63
2021/08/18 06:45:17;;;;;;;3.73;2.33;;;;;;;16.40;100.00;98380.59;5074002;28;20229;-63
2021/08/18 06:47:44;;;;;;;3.17;2.50;;;;;;;16.46;100.00;98382.72;5073473;28;20215;-63
2021/08/18 06:50:11;;;;;;;2.93;2.30;;;;;;;16.44;100.00;98384.69;5073502;28;20208;-63
2021/08/18 06:52:38;;;;;;;4.07;2.20;;;;;;;16.37;100.00;98388.00;5073559;28;20294;-63
2021/08/18 06:55:08;;;;;;;3.17;2.20;;;;;;;16.28;100.00;98386.97;5073721;28;20231;-63
2021/08/18 06:57:34;;;;;;;3.90;2.70;;;;;;;16.22;100.00;98384.84;5073499;28;20203;-63
2021/08/18 07:00:01;;;;;;;3.73;2.50;;;;;;;16.08;100.00;98385.22;5073781;28;20203;-63
2021/08/18 07:02:27;;;;;;;3.33;2.87;;;;;;;16.07;100.00;98381.88;5073217;28;20699;-63
2021/08/18 07:04:54;;;;;;;3.37;2.87;;;;;;;16.10;100.00;98388.59;5072339;28;20219;-63
2021/08/18 07:07:20;;;;;;;3.20;2.57;;;;;;;16.16;100.00;98388.06;5073310;28;20211;-63
2021/08/18 07:09:46;;;;;;;2.60;2.37;;;;;;;16.25;100.00;98392.59;5073504;28;20208;-63
2021/08/18 07:12:14;;;;;;;3.17;2.27;;;;;;;16.42;100.00;98388.47;5073442;28;20218;-63
2021/08/18 07:14:41;;;;;;;4.33;2.40;;;;;;;16.64;100.00;98383.75;5073404;28;20601;-63
2021/08/18 07:17:07;;;;;;;3.70;2.40;;;;;;;16.90;100.00;98384.06;5073477;28;20677;-64
2021/08/18 07:19:34;;;;;;;3.00;2.60;;;;;;;17.16;100.00;98380.72;5072575;28;20214;-63
2021/08/18 07:22:00;;;;;;;3.10;2.60;;;;;;;17.31;100.00;98383.81;5072954;28;20222;-63
2021/08/18 07:24:26;;;;;;;2.73;2.13;;;;;;;17.47;100.00;98386.78;5072945;28;20207;-64
2021/08/18 07:26:53;;;;;;;3.47;2.43;;;;;;;17.61;99.18;98386.34;5072876;28;20219;-63
2021/08/18 07:29:21;;;;;;;2.67;2.27;;;;;;;17.75;99.03;98389.38;5071544;28;20208;-63
2021/08/18 07:31:47;;;;;;;4.13;2.53;;;;;;;17.91;97.62;98383.47;5072872;28;20669;-63
2021/08/18 07:34:14;;;;;;;2.60;2.40;;;;;;;18.08;96.37;98382.69;5072814;28;20239;-63
2021/08/18 07:36:40;;;;;;;2.67;2.30;;;;;;;18.29;94.67;98386.00;5073177;28;20214;-63
2021/08/18 07:39:07;;;;;;;2.90;2.40;;;;;;;18.52;92.19;98374.75;5073125;28;20211;-63
2021/08/18 07:41:33;;;;;;;3.20;2.50;;;;;;;18.77;90.06;98379.41;5073090;28;20204;-63
2021/08/18 07:43:59;;;;;;;3.23;2.20;;;;;;;19.05;89.53;98375.69;5072727;28;20211;-63
2021/08/18 07:46:27;;;;;;;2.60;2.00;;;;;;;19.14;86.39;98372.06;5072573;28;20214;-63
2021/08/18 07:48:54;;;;;;;2.23;1.80;;;;;;;19.10;85.89;98381.44;5072929;28;20215;-63
2021/08/18 07:51:20;;;;;;;2.60;2.10;;;;;;;19.13;85.45;98378.44;5072683;28;20204;-63
2021/08/18 07:53:47;;;;;;;2.90;2.00;;;;;;;19.26;86.05;98375.41;5072750;28;20204;-63
2021/08/18 07:56:13;;;;;;;3.63;2.30;;;;;;;19.28;82.24;98368.91;5070851;28;20212;-63
2021/08/18 07:58:40;;;;;;;2.67;2.10;;;;;;;19.29;82.32;98373.25;5072830;28;20211;-63
2021/08/18 08:01:06;;;;;;;3.77;2.00;;;;;;;19.39;82.36;98365.97;5072415;28;20695;-63
2021/08/18 08:03:34;;;;;;;2.77;1.80;;;;;;;19.48;82.94;98369.56;5072627;28;20215;-63
2021/08/18 08:06:01;;;;;;;2.70;2.10;;;;;;;19.62;83.19;98372.53;5072629;28;20218;-63
2021/08/18 08:08:27;;;;;;;1.97;1.70;;;;;;;19.79;81.48;98370.78;5072070;28;20237;-63
2021/08/18 08:10:54;;;;;;;2.23;1.63;;;;;;;20.00;81.27;98372.09;5048366;28;20219;-63
2021/08/18 08:13:20;;;;;;;4.17;2.00;;;;;;;19.98;79.88;98366.06;5047368;28;20689;-64
2021/08/18 08:15:47;;;;;;;2.03;1.60;;;;;;;20.00;80.60;98371.28;5049183;28;20822;-64
2021/08/18 08:18:13;;;;;;;1.90;1.50;;;;;;;20.01;80.31;98372.94;5049619;28;20204;-64
2021/08/18 08:20:42;;;;;;;2.40;1.73;;;;;;;19.96;80.63;98378.81;5049435;28;20212;-63
2021/08/18 08:23:09;;;;;;;1.50;1.30;;;;;;;19.75;79.68;98372.94;5057380;28;20214;-62
2021/08/18 08:25:36;;;;;;;1.83;1.40;;;;;;;19.45;79.01;98376.06;5069455;28;20711;-63
2021/08/18 08:28:02;;;;;;;1.20;1.10;;;;;;;19.11;81.63;98383.13;5068420;28;20691;-63
2021/08/18 08:30:29;;;;;;;2.57;1.50;;;;;;;18.71;87.41;98390.72;5069892;28;20220;-63
2021/08/18 08:32:55;;;;;;;1.60;1.20;;;;;;;18.53;87.93;98387.16;5072437;28;20207;-63
2021/08/18 08:35:22;;;;;;;1.40;1.10;;;;;;;18.70;87.94;98382.81;5072381;28;20251;-63
2021/08/18 08:37:50;;;;;;;1.63;1.07;;;;;;;18.80;88.57;98389.81;5073741;28;20207;-64
2021/08/18 08:40:16;;;;;;;1.47;1.00;;;;;;;18.83;88.85;98383.31;5073540;28;20216;-62
2021/08/18 08:42:43;;;;;;;0.87;0.87;;;;;;;19.25;86.90;98384.44;5072622;28;20578;-63
2021/08/18 08:45:11;;;;;;;2.03;0.80;;;;;;;19.68;83.83;98387.97;5073773;28;20579;-63
2021/08/18 08:47:38;;;;;;;0.93;0.80;;;;;;;19.94;81.30;98383.47;5073686;28;20365;-63
2021/08/18 08:50:06;;;;;;;0.70;0.63;;;;;;;20.13;80.98;98387.81;5070870;28;20226;-63
2021/08/18 08:52:33;;;;;;;0.80;0.70;;;;;;;20.33;80.34;98378.53;5073287;28;20219;-63
2021/08/18 08:55:02;;;;;;;0.40;0.40;;;;;;;20.53;79.13;98382.63;5073168;28;20285;-63
2021/08/18 08:57:28;;;;;;;0.40;0.40;;;;;;;20.65;78.29;98378.66;5072293;28;20222;-63
2021/08/18 08:59:55;;;;;;;0.40;0.40;;;;;;;20.86;78.07;98376.38;5073439;28;20207;-63
2021/08/18 09:02:22;;;;;;;1.70;0.40;;;;;;;21.01;74.41;98375.59;5073474;28;20208;-63
2021/08/18 09:04:50;;;;;;;1.20;0.40;;;;;;;20.73;74.18;98382.19;5072153;28;20210;-63
2021/08/18 09:07:20;;;;;;;1.07;0.40;;;;;;;20.52;75.95;98384.50;5073504;28;20207;-63
2021/08/18 09:09:52;;;;;;;0.80;0.37;;;;;;;20.21;75.80;98380.66;5073050;28;20208;-62
2021/08/18 09:12:27;;;;;;;1.53;0.70;;;;;;;20.02;77.40;98386.22;5072182;28;20231;-63
2021/08/18 09:14:53;;;;;;;0.50;0.50;;;;;;;19.77;78.12;98389.75;5073179;28;20241;-63
2021/08/18 09:17:31;;;;;;;0.43;0.43;;;;;;;19.42;79.87;98387.13;5071384;28;20211;-63
2021/08/18 09:20:01;;;;;;;0.50;0.50;;;;;;;19.36;82.39;98382.38;5074431;28;20230;-62
2021/08/18 09:22:28;;;;;;;0.70;0.60;;;;;;;19.51;81.59;98388.03;5073402;28;20288;-61
2021/08/18 09:25:09;;;;;;;0.50;0.50;;;;;;;19.82;79.48;98382.03;5075558;28;20211;-61
2021/08/18 09:27:38;;;;;;;1.20;1.10;;;;;;;19.92;76.59;98382.78;5075447;28;20230;-62
2021/08/18 09:30:06;;;;;;;0.60;0.60;;;;;;;19.91;76.78;98378.44;5075519;28;20208;-62
2021/08/18 09:32:36;;;;;;;0.43;0.43;;;;;;;19.84;78.03;98382.75;5075120;28;20211;-62
2021/08/18 09:35:06;;;;;;;1.03;0.70;;;;;;;19.83;79.95;98380.22;5074874;28;20293;-62
2021/08/18 09:37:33;;;;;;;0.57;0.50;;;;;;;19.88;78.27;98384.09;5075407;28;20218;-62
2021/08/18 09:40:00;;;;;;;1.30;0.60;;;;;;;19.91;77.79;98381.13;5075265;28;20210;-62
2021/08/18 09:42:32;;;;;;;0.63;0.60;;;;;;;20.06;77.26;98382.22;5074533;28;20227;-61
2021/08/18 09:45:31;;;;;;;0.60;0.60;;;;;;;20.12;76.85;98378.09;5073643;28;20586;-62
2021/08/18 09:48:03;;;;;;;0.50;0.50;;;;;;;20.32;77.88;98369.63;5041302;28;20679;-61
2021/08/18 09:50:32;;;;;;;0.80;0.67;;;;;;;20.50;77.05;98381.13;5075245;28;20220;-61
2021/08/18 09:53:07;;;;;;;0.67;0.67;;;;;;;20.41;75.10;98374.03;5075126;28;20234;-62
2021/08/18 09:55:34;;;;;;;0.77;0.60;;;;;;;20.50;75.56;98375.75;5074971;28;20325;-63
2021/08/18 09:58:00;;;;;;;0.60;0.60;;;;;;;20.73;73.85;98381.38;5075024;28;20218;-62
2021/08/18 10:00:29;;;;;;;0.80;0.80;;;;;;;20.83;72.88;98379.38;5074625;28;20222;-62
2021/08/18 10:02:55;;;;;;;0.60;0.57;;;;;;;20.74;72.30;98377.69;5074964;28;20207;-62
2021/08/18 10:05:28;;;;;;;0.83;0.80;;;;;;;20.66;72.29;98383.84;5074936;28;20207;-62
2021/08/18 10:07:55;;;;;;;0.77;0.77;;;;;;;20.48;72.64;98393.84;5074624;28;20261;-61
2021/08/18 10:10:22;;;;;;;1.10;0.80;;;;;;;20.16;74.77;98379.44;5073112;28;20234;-62
2021/08/18 10:12:48;;;;;;;0.70;0.70;;;;;;;19.84;76.92;98388.13;5074669;28;20234;-62
2021/08/18 10:15:15;;;;;;;1.00;0.90;;;;;;;19.72;77.84;98389.38;5074286;28;20727;-62
2021/08/18 10:17:43;;;;;;;1.43;1.00;;;;;;;19.61;79.66;98392.28;5074636;28;20669;-62
2021/08/18 10:20:11;;;;;;;1.23;1.13;;;;;;;19.52;77.28;98392.38;5074661;28;20218;-61
2021/08/18 10:22:38;;;;;;;1.20;1.10;;;;;;;19.37;77.98;98396.59;5074559;28;20211;-62
2021/08/18 10:25:45;;;;;;;1.07;1.00;;;;;;;19.47;78.54;98400.91;5074181;28;20244;-62
2021/08/18 10:28:12;;;;;;;1.13;1.10;;;;;;;19.56;77.60;98389.22;5074308;28;20586;-61
2021/08/18 10:30:50;;;;;;;1.27;1.17;;;;;;;19.70;76.12;98385.16;5074211;28;20210;-61
2021/08/18 10:33:59;;;;;;;1.13;1.03;;;;;;;19.85;75.47;98384.44;5074493;28;20215;-61
2021/08/18 10:37:07;;;;;;;1.53;1.27;;;;;;;19.93;74.56;98376.41;5070733;28;20719;-62
2021/08/18 10:39:39;;;;;;;1.00;1.00;;;;;;;19.67;75.13;98375.59;5073233;28;20211;-62
2021/08/18 10:42:08;;;;;;;0.90;0.90;;;;;;;19.26;76.44;98380.78;5073269;28;20223;-62
2021/08/18 10:44:37;;;;;;;1.17;1.10;;;;;;;18.98;77.96;98382.66;5072659;28;20656;-62
2021/08/18 10:47:15;;;;;;;1.27;1.17;;;;;;;18.91;81.47;98378.03;5057015;28;20209;-62
2021/08/18 10:49:42;;;;;;;1.60;1.33;;;;;;;18.92;80.83;98377.91;5052613;28;20215;-62
2021/08/18 10:52:10;;;;;;;1.20;1.10;;;;;;;18.96;79.33;98378.44;5052584;28;20212;-62
2021/08/18 10:54:44;;;;;;;1.40;1.30;;;;;;;19.07;79.58;98371.00;5052169;28;20228;-62
2021/08/18 10:57:39;;;;;;;1.40;1.20;;;;;;;19.12;78.70;98367.84;5052476;28;20208;-62
2021/08/18 11:00:17;;;;;;;1.63;1.30;;;;;;;19.07;80.50;98362.97;5052101;28;20223;-62
2021/08/18 11:02:55;;;;;;;2.20;1.17;;;;;;;19.16;78.55;98364.75;5052821;28;20211;-62
2021/08/18 11:05:23;;;;;;;2.20;1.00;;;;;;;19.24;78.50;98361.31;5051190;28;20595;-62
2021/08/18 11:08:12;;;;;;;1.57;1.20;;;;;;;19.29;77.21;98365.22;5051868;28;20211;-63
2021/08/18 11:10:42;;;;;;;1.43;1.30;;;;;;;19.41;78.13;98364.00;5052866;28;20283;-62
2021/08/18 11:13:10;;;;;;;1.93;1.47;;;;;;;19.51;78.63;98364.72;5053487;28;20212;-62
2021/08/18 11:15:50;;;;;;;2.00;1.33;;;;;;;19.48;76.49;98365.03;5053194;28;20243;-63
2021/08/18 11:18:18;;;;;;;1.43;1.30;;;;;;;19.25;77.56;98362.97;5053583;28;20212;-62
2021/08/18 11:20:48;;;;;;;1.30;1.20;;;;;;;19.19;79.21;98359.06;5053448;28;20566;-62
2021/08/18 11:23:24;;;;;;;1.23;1.13;;;;;;;19.36;78.15;98360.06;5053378;28;20216;-62
2021/08/18 11:25:50;;;;;;;1.40;1.30;;;;;;;19.52;78.95;98358.34;5053330;28;20218;-62
2021/08/18 11:28:22;;;;;;;1.30;1.20;;;;;;;19.75;76.44;98358.72;5067256;28;20230;-62
2021/08/18 11:30:57;;;;;;;1.43;1.27;;;;;;;19.79;75.91;98362.75;5071156;28;20212;-62